Time;durP1;ratioP1;P1;durP2;ratioP2;P2;SDS_P1;SDS_P2;PMS_P1;PMS_P2;Temp;Humidity;BMP_temperature;BMP_pressure;BME280_temperature;BME280_humidity;BME280_pressure;Samples;Min_cycle;Max_cycle;Signal;HPM_P1;HPM_P2
2022/04/24 00:00:39;;;;;;;17.95;14.25;;;8.80;99.90;;;;;;5042928;28;20215;-48
2022/04/24 00:03:07;;;;;;;19.35;14.35;;;8.60;99.90;;;;;;5042389;28;20198;-48
2022/04/24 00:05:34;;;;;;;21.27;14.73;;;8.70;99.90;;;;;;5042912;28;20248;-46
2022/04/24 00:08:02;;;;;;;21.83;15.88;;;8.70;99.90;;;;;;5042395;28;20228;-49
2022/04/24 00:10:29;;;;;;;22.33;16.60;;;8.60;99.90;;;;;;5041307;28;20296;-51
2022/04/24 00:12:57;;;;;;;22.70;15.38;;;8.60;99.90;;;;;;5042005;28;20216;-49
2022/04/24 00:15:24;;;;;;;21.27;16.17;;;8.40;99.90;;;;;;5042140;28;20240;-49
2022/04/24 00:17:51;;;;;;;31.38;16.20;;;8.40;99.90;;;;;;5041956;28;20236;-48
2022/04/24 00:20:18;;;;;;;18.05;15.30;;;8.30;99.90;;;;;;5041983;28;20220;-48
2022/04/24 00:22:46;;;;;;;20.48;16.10;;;8.30;99.90;;;;;;5041229;28;20376;-50
2022/04/24 00:25:13;;;;;;;19.52;16.38;;;8.30;99.90;;;;;;5042173;28;20250;-48
2022/04/24 00:27:40;;;;;;;19.85;17.17;;;8.20;99.90;;;;;;5038281;28;20216;-47
2022/04/24 00:30:08;;;;;;;18.17;15.10;;;7.90;99.90;;;;;;5021421;28;20432;-50
2022/04/24 00:32:35;;;;;;;20.25;15.75;;;8.10;99.90;;;;;;5022235;28;20201;-53
2022/04/24 00:35:03;;;;;;;22.05;17.23;;;8.10;99.90;;;;;;5021654;28;20546;-49
2022/04/24 00:37:30;;;;;;;22.60;17.25;;;8.20;99.90;;;;;;5021841;28;20259;-50
2022/04/24 00:39:57;;;;;;;25.25;14.73;;;8.10;99.90;;;;;;5019611;28;20227;-49
2022/04/24 00:42:24;;;;;;;19.63;16.13;;;8.20;99.90;;;;;;5022195;28;20197;-49
2022/04/24 00:44:52;;;;;;;21.73;17.15;;;8.00;99.90;;;;;;5022192;28;20201;-48
2022/04/24 00:47:21;;;;;;;19.92;16.40;;;8.00;99.90;;;;;;5021978;28;20201;-48
2022/04/24 00:49:50;;;;;;;23.75;16.65;;;8.00;99.90;;;;;;5021597;28;20224;-51
2022/04/24 00:52:18;;;;;;;25.13;17.13;;;8.10;99.90;;;;;;5021715;28;20200;-50
2022/04/24 00:54:45;;;;;;;19.13;15.60;;;7.90;99.90;;;;;;5021811;28;20217;-48
2022/04/24 00:57:13;;;;;;;21.75;16.95;;;7.80;99.90;;;;;;5021671;28;20233;-51
2022/04/24 00:59:41;;;;;;;19.92;16.50;;;7.70;99.90;;;;;;5021572;28;20216;-49
2022/04/24 01:02:09;;;;;;;22.05;16.95;;;7.60;99.90;;;;;;5021668;28;20230;-53
2022/04/24 01:04:38;;;;;;;15.32;13.70;;;7.80;99.90;;;;;;5022127;28;20526;-49
2022/04/24 01:07:06;;;;;;;15.98;13.85;;;7.80;99.90;;;;;;5021495;28;20323;-47
2022/04/24 01:09:35;;;;;;;17.90;14.50;;;7.90;99.90;;;;;;5021849;28;20221;-48
2022/04/24 01:12:04;;;;;;;20.13;16.20;;;7.80;99.90;;;;;;5021144;28;20263;-48
2022/04/24 01:14:31;;;;;;;23.73;16.95;;;7.70;99.90;;;;;;5020971;28;20201;-49
2022/04/24 01:17:01;;;;;;;20.85;17.00;;;7.70;99.90;;;;;;5040226;28;20216;-53
2022/04/24 01:19:28;;;;;;;25.90;17.80;;;7.50;99.90;;;;;;5042205;28;20220;-49
2022/04/24 01:21:56;;;;;;;23.20;18.10;;;7.50;99.90;;;;;;5042607;28;20510;-49
2022/04/24 01:24:26;;;;;;;21.90;17.38;;;7.50;99.90;;;;;;5040834;28;20227;-50
2022/04/24 01:26:53;;;;;;;22.67;18.20;;;7.40;99.90;;;;;;5041082;28;20200;-49
2022/04/24 01:29:21;;;;;;;22.60;16.10;;;7.50;99.90;;;;;;5040865;28;20228;-49
2022/04/24 01:31:49;;;;;;;25.05;19.45;;;7.50;99.90;;;;;;5040966;28;20200;-49
2022/04/24 01:34:18;;;;;;;22.10;17.25;;;7.50;99.90;;;;;;5041142;28;20228;-51
2022/04/24 01:36:46;;;;;;;25.70;19.80;;;7.40;99.90;;;;;;5040780;28;20573;-49
2022/04/24 01:39:17;;;;;;;26.40;17.63;;;7.50;99.90;;;;;;5040873;28;20244;-53
2022/04/24 01:41:45;;;;;;;26.63;18.50;;;7.20;99.90;;;;;;5041364;28;20263;-48
2022/04/24 01:44:13;;;;;;;24.35;19.48;;;7.20;99.90;;;;;;5040378;28;20431;-50
2022/04/24 01:46:40;;;;;;;30.73;20.00;;;7.40;99.90;;;;;;5040528;28;20204;-49
2022/04/24 01:49:07;;;;;;;23.50;17.48;;;7.40;99.90;;;;;;5040460;28;20351;-48
2022/04/24 01:51:34;;;;;;;27.95;19.85;;;7.30;99.90;;;;;;5040703;28;20491;-50
2022/04/24 01:54:02;;;;;;;29.25;20.02;;;7.30;99.90;;;;;;5040882;28;20204;-47
2022/04/24 01:56:32;;;;;;;30.40;19.88;;;7.30;99.90;;;;;;5040428;28;20278;-49
2022/04/24 01:59:00;;;;;;;35.15;21.45;;;7.30;99.90;;;;;;5040481;28;20426;-50
2022/04/24 02:01:27;;;;;;;22.70;18.17;;;7.30;99.90;;;;;;5040618;28;20204;-49
2022/04/24 02:03:55;;;;;;;28.52;19.75;;;7.40;99.90;;;;;;5040646;28;20196;-47
2022/04/24 02:06:22;;;;;;;26.85;19.30;;;7.20;99.90;;;;;;5040352;28;20207;-50
2022/04/24 02:08:50;;;;;;;26.50;18.13;;;7.30;99.90;;;;;;5040241;28;20251;-49
2022/04/24 02:11:17;;;;;;;26.15;19.48;;;7.40;99.90;;;;;;5040304;28;20204;-50
2022/04/24 02:13:45;;;;;;;24.60;18.98;;;7.30;99.90;;;;;;5040504;28;20201;-50
2022/04/24 02:16:12;;;;;;;24.00;17.35;;;7.30;99.90;;;;;;5040066;28;20266;-52
2022/04/24 02:18:40;;;;;;;23.13;17.35;;;7.20;99.90;;;;;;5040488;28;20485;-51
2022/04/24 02:21:10;;;;;;;21.27;17.27;;;7.40;99.90;;;;;;5044096;28;20246;-51
2022/04/24 02:23:38;;;;;;;21.52;17.02;;;7.30;99.90;;;;;;5044617;28;20196;-51
2022/04/24 02:26:05;;;;;;;27.02;18.10;;;7.30;99.90;;;;;;5029257;28;20232;-50
2022/04/24 02:28:32;;;;;;;23.58;19.23;;;7.60;99.90;;;;;;5051180;28;20227;-50
2022/04/24 02:30:59;;;;;;;18.60;16.10;;;7.30;99.90;;;;;;5060057;28;20246;-50
2022/04/24 02:33:27;;;;;;;23.73;18.20;;;7.30;99.90;;;;;;5059895;28;20205;-50
2022/04/24 02:35:54;;;;;;;24.55;17.15;;;7.20;99.90;;;;;;5059812;28;20828;-49
2022/04/24 02:38:22;;;;;;;20.30;16.02;;;7.30;99.90;;;;;;5060008;28;20195;-51
2022/04/24 02:40:49;;;;;;;20.17;16.50;;;7.40;99.90;;;;;;5060206;28;20241;-49
2022/04/24 02:43:16;;;;;;;28.05;17.02;;;7.50;99.90;;;;;;5059879;28;20561;-52
2022/04/24 02:45:43;;;;;;;25.15;16.35;;;7.50;99.90;;;;;;5060125;28;20334;-49
2022/04/24 02:48:11;;;;;;;22.55;15.93;;;7.50;99.90;;;;;;5060258;28;20204;-49
2022/04/24 02:50:39;;;;;;;20.00;14.18;;;7.40;99.90;;;;;;5060207;28;20542;-50
2022/04/24 02:53:07;;;;;;;18.80;14.55;;;7.60;99.90;;;;;;5060515;28;20455;-48
2022/04/24 02:55:35;;;;;;;17.73;15.63;;;7.60;99.90;;;;;;5065656;28;20206;-49
2022/04/24 02:58:02;;;;;;;22.45;16.45;;;7.60;99.90;;;;;;5051945;28;20270;-47
2022/04/24 03:00:49;;;;;;;17.90;14.70;;;7.80;99.90;;;;;;5047011;28;20220;-49
2022/04/24 03:03:20;;;;;;;21.52;16.08;;;7.60;99.90;;;;;;5043097;28;20195;-48
2022/04/24 03:05:49;;;;;;;20.23;16.80;;;7.60;99.90;;;;;;5039782;28;20200;-47
2022/04/24 03:08:18;;;;;;;21.08;14.07;;;7.50;99.90;;;;;;5039584;28;20200;-46
2022/04/24 03:10:45;;;;;;;23.23;17.48;;;7.70;99.90;;;;;;5039898;28;20231;-49
2022/04/24 03:13:13;;;;;;;20.92;15.48;;;7.50;99.90;;;;;;5040176;28;20215;-49
2022/04/24 03:15:40;;;;;;;20.52;15.95;;;7.40;99.90;;;;;;5040073;28;20192;-52
2022/04/24 03:18:07;;;;;;;21.45;16.13;;;7.50;99.90;;;;;;5039830;28;20468;-48
2022/04/24 03:20:35;;;;;;;23.88;18.05;;;7.50;99.90;;;;;;5039447;28;20207;-48
2022/04/24 03:23:02;;;;;;;20.63;16.83;;;7.40;99.90;;;;;;5039724;28;20206;-48
2022/04/24 03:25:30;;;;;;;19.42;15.52;;;7.50;99.90;;;;;;5039539;28;20408;-49
2022/04/24 03:27:57;;;;;;;20.83;15.60;;;7.40;99.90;;;;;;5039621;28;20207;-46
2022/04/24 03:30:24;;;;;;;22.27;17.15;;;7.30;99.90;;;;;;5039550;28;20258;-51
2022/04/24 03:32:52;;;;;;;27.88;17.05;;;7.20;99.90;;;;;;5039581;28;20207;-47
2022/04/24 03:35:19;;;;;;;22.40;17.30;;;7.20;99.90;;;;;;5039244;28;20200;-51
2022/04/24 03:37:46;;;;;;;21.50;16.27;;;7.20;99.90;;;;;;5039642;28;20271;-48
2022/04/24 03:40:13;;;;;;;21.55;16.60;;;7.20;99.90;;;;;;5043006;28;20222;-50
2022/04/24 03:42:42;;;;;;;24.05;18.70;;;7.10;99.90;;;;;;5043214;28;20196;-51
2022/04/24 03:45:11;;;;;;;22.27;16.98;;;7.10;99.90;;;;;;5042468;28;20511;-51
2022/04/24 03:47:39;;;;;;;22.73;16.52;;;7.10;99.90;;;;;;5043266;28;20208;-52
2022/04/24 03:50:07;;;;;;;21.05;17.27;;;7.20;99.90;;;;;;5042568;28;20226;-50
2022/04/24 03:52:34;;;;;;;19.48;16.00;;;7.10;99.90;;;;;;5042729;28;20250;-50
2022/04/24 03:55:02;;;;;;;18.33;14.68;;;7.20;99.90;;;;;;5042587;28;20200;-48
2022/04/24 03:57:31;;;;;;;22.88;17.55;;;7.20;99.90;;;;;;5042596;28;20505;-50
2022/04/24 03:59:58;;;;;;;24.48;18.08;;;7.30;99.90;;;;;;5042739;28;20457;-50
2022/04/24 04:02:26;;;;;;;19.70;16.40;;;7.30;99.90;;;;;;5042434;28;20196;-52
2022/04/24 04:04:53;;;;;;;19.90;15.75;;;7.30;99.90;;;;;;5042540;28;20267;-49
2022/04/24 04:07:21;;;;;;;29.88;16.63;;;7.30;99.90;;;;;;5042142;28;20212;-51
2022/04/24 04:09:48;;;;;;;20.58;16.25;;;7.30;99.90;;;;;;5042926;28;20228;-51
2022/04/24 04:12:15;;;;;;;20.00;14.27;;;7.30;99.90;;;;;;5042219;28;20223;-49
2022/04/24 04:14:42;;;;;;;18.58;13.48;;;7.30;99.90;;;;;;5042128;28;20255;-50
2022/04/24 04:17:10;;;;;;;20.90;14.30;;;7.40;99.90;;;;;;5041942;28;20216;-50
2022/04/24 04:19:37;;;;;;;19.17;15.80;;;7.40;99.90;;;;;;5042263;28;20407;-52
2022/04/24 04:22:04;;;;;;;22.15;15.88;;;7.40;99.90;;;;;;5041903;28;20546;-49
2022/04/24 04:24:31;;;;;;;21.17;13.32;;;7.40;99.90;;;;;;5042280;28;20218;-50
2022/04/24 04:26:59;;;;;;;21.70;16.85;;;7.50;99.90;;;;;;5042792;28;20200;-50
2022/04/24 04:29:26;;;;;;;21.83;15.20;;;7.60;99.90;;;;;;5042246;28;20228;-49
2022/04/24 04:31:59;;;;;;;20.27;16.55;;;7.70;99.90;;;;;;5041935;28;20403;-48
2022/04/24 04:34:27;;;;;;;26.50;16.90;;;7.90;99.90;;;;;;5042120;28;20200;-48
2022/04/24 04:36:54;;;;;;;20.52;15.90;;;8.00;99.90;;;;;;5042164;28;20216;-48
2022/04/24 04:39:21;;;;;;;20.13;14.43;;;8.20;99.90;;;;;;5042280;28;20220;-49
2022/04/24 04:41:49;;;;;;;22.00;15.55;;;8.40;99.90;;;;;;5042338;28;20201;-50
2022/04/24 04:44:16;;;;;;;17.75;13.90;;;8.40;99.90;;;;;;5041511;28;20200;-50
2022/04/24 04:46:43;;;;;;;19.02;12.93;;;8.40;99.90;;;;;;5042051;28;20266;-49
2022/04/24 04:49:10;;;;;;;22.13;15.00;;;8.30;99.90;;;;;;5041337;28;20258;-48
2022/04/24 04:51:41;;;;;;;16.75;13.45;;;8.10;99.90;;;;;;5041594;28;20201;-51
2022/04/24 04:54:09;;;;;;;17.95;14.40;;;8.20;99.90;;;;;;5041822;28;20208;-52
2022/04/24 04:56:37;;;;;;;17.92;14.30;;;8.30;99.90;;;;;;5042144;28;20579;-49
2022/04/24 04:59:05;;;;;;;26.92;16.75;;;8.20;99.90;;;;;;5041128;28;20271;-48
2022/04/24 05:01:32;;;;;;;18.85;13.82;;;8.20;99.90;;;;;;5042017;28;20534;-48
2022/04/24 05:03:59;;;;;;;17.65;12.85;;;8.30;99.90;;;;;;5041693;28;20196;-51
2022/04/24 05:06:29;;;;;;;19.85;14.52;;;8.40;99.90;;;;;;5045751;28;20227;-50
2022/04/24 05:08:57;;;;;;;17.52;12.90;;;8.40;99.90;;;;;;5042263;28;20678;-46
2022/04/24 05:11:24;;;;;;;16.08;12.30;;;8.50;99.90;;;;;;5042130;28;20200;-49
2022/04/24 05:13:52;;;;;;;17.77;14.02;;;8.70;99.90;;;;;;5041387;28;20519;-49
2022/04/24 05:16:19;;;;;;;18.40;14.05;;;8.90;99.90;;;;;;5041142;28;20204;-52
2022/04/24 05:18:47;;;;;;;18.63;13.63;;;9.20;99.90;;;;;;5041550;28;20263;-48
2022/04/24 05:21:17;;;;;;;19.73;13.68;;;9.30;99.90;;;;;;5040928;28;20198;-52
2022/04/24 05:23:46;;;;;;;17.30;14.50;;;9.20;99.90;;;;;;5041314;28;20396;-48
2022/04/24 05:26:13;;;;;;;21.70;13.93;;;9.30;99.90;;;;;;5039422;28;20203;-49
2022/04/24 05:28:40;;;;;;;15.27;12.13;;;9.50;99.90;;;;;;5041213;28;20287;-50
2022/04/24 05:31:07;;;;;;;18.73;15.45;;;9.60;99.90;;;;;;5040298;28;20204;-49
2022/04/24 05:33:35;;;;;;;16.20;13.02;;;9.70;99.90;;;;;;5041273;28;20412;-48
2022/04/24 05:36:02;;;;;;;18.15;13.75;;;9.80;99.90;;;;;;5040489;28;20214;-51
2022/04/24 05:38:30;;;;;;;16.33;14.27;;;9.90;99.90;;;;;;5040727;28;20234;-53
2022/04/24 05:40:57;;;;;;;18.92;14.00;;;10.10;99.90;;;;;;5040291;28;20207;-50
2022/04/24 05:43:24;;;;;;;18.52;12.35;;;10.00;99.90;;;;;;5040751;28;20249;-50
2022/04/24 05:45:51;;;;;;;19.30;13.60;;;10.10;99.90;;;;;;5040292;28;20246;-49
2022/04/24 05:48:19;;;;;;;20.55;15.18;;;10.40;99.90;;;;;;5040535;28;20214;-52
2022/04/24 05:50:46;;;;;;;14.48;11.43;;;10.50;99.90;;;;;;5041026;28;20450;-50
2022/04/24 05:53:14;;;;;;;16.98;14.30;;;10.50;99.90;;;;;;5040768;28;20489;-47
2022/04/24 05:55:41;;;;;;;18.77;14.35;;;10.50;99.90;;;;;;5040779;28;20202;-50
2022/04/24 05:58:08;;;;;;;21.63;14.00;;;10.40;99.90;;;;;;5039805;28;20549;-50
2022/04/24 06:00:36;;;;;;;14.38;11.27;;;10.50;99.90;;;;;;5040458;28;20283;-50
2022/04/24 06:03:03;;;;;;;18.33;13.73;;;10.60;99.90;;;;;;5040409;28;20210;-47
2022/04/24 06:05:30;;;;;;;16.65;13.60;;;10.60;99.90;;;;;;5040724;28;20237;-53
2022/04/24 06:07:58;;;;;;;18.73;12.88;;;10.60;99.90;;;;;;5040366;28;20210;-52
2022/04/24 06:10:25;;;;;;;15.40;13.80;;;10.80;99.90;;;;;;5040668;28;20542;-49
2022/04/24 06:12:54;;;;;;;15.75;12.60;;;10.80;99.90;;;;;;5041192;28;20203;-49
2022/04/24 06:15:27;;;;;;;16.50;12.88;;;11.00;99.90;;;;;;5040985;28;20199;-50
2022/04/24 06:17:57;;;;;;;15.18;11.85;;;11.10;99.90;;;;;;5039914;28;20242;-48
2022/04/24 06:20:26;;;;;;;16.70;12.55;;;11.10;99.90;;;;;;5040761;28;20532;-50
2022/04/24 06:22:58;;;;;;;16.98;13.13;;;11.10;99.90;;;;;;5040491;28;20274;-47
2022/04/24 06:25:31;;;;;;;14.43;11.80;;;11.20;99.90;;;;;;5041861;28;20207;-50
2022/04/24 06:27:59;;;;;;;16.60;11.75;;;11.30;99.90;;;;;;5041739;28;20208;-48
2022/04/24 06:30:28;;;;;;;15.95;12.85;;;11.60;99.90;;;;;;5040412;28;20270;-48
2022/04/24 06:32:57;;;;;;;17.48;11.15;;;11.80;99.90;;;;;;5040210;28;20207;-51
2022/04/24 06:35:25;;;;;;;14.15;11.60;;;12.00;99.90;;;;;;5040392;28;20196;-52
2022/04/24 06:37:54;;;;;;;18.08;12.40;;;12.10;99.90;;;;;;5040145;28;20289;-50
2022/04/24 06:40:23;;;;;;;16.20;10.65;;;12.00;99.90;;;;;;5039678;28;20216;-48
2022/04/24 06:43:04;;;;;;;13.35;11.13;;;12.00;99.90;;;;;;5039977;28;20199;-50
2022/04/24 06:45:42;;;;;;;12.98;11.30;;;12.10;99.90;;;;;;5039922;28;20204;-51
2022/04/24 06:48:11;;;;;;;11.68;9.30;;;12.50;99.90;;;;;;5039410;28;20395;-51
2022/04/24 06:50:47;;;;;;;11.45;10.27;;;12.80;99.90;;;;;;5039497;28;20200;-50
2022/04/24 06:53:20;;;;;;;13.63;10.75;;;12.90;99.90;;;;;;5039748;28;20238;-50
2022/04/24 06:55:49;;;;;;;12.98;8.88;;;13.00;99.90;;;;;;5039549;28;20199;-50
2022/04/24 06:58:18;;;;;;;10.48;9.38;;;13.10;99.90;;;;;;5039346;28;20226;-52
2022/04/24 07:00:47;;;;;;;11.93;9.15;;;12.90;99.90;;;;;;5039940;28;20218;-53
2022/04/24 07:03:35;;;;;;;10.75;8.55;;;12.90;99.90;;;;;;5036286;28;20197;-52
2022/04/24 07:06:03;;;;;;;11.80;9.80;;;12.70;99.90;;;;;;5038405;28;20204;-52
2022/04/24 07:08:30;;;;;;;9.52;8.63;;;12.80;99.90;;;;;;5041276;28;20266;-48
2022/04/24 07:10:58;;;;;;;14.70;9.43;;;12.80;99.90;;;;;;5040345;28;20204;-50
2022/04/24 07:13:25;;;;;;;9.77;8.25;;;13.10;99.90;;;;;;5041540;28;20503;-52
2022/04/24 07:15:52;;;;;;;10.23;8.30;;;13.10;99.90;;;;;;5043144;28;20200;-49
2022/04/24 07:18:20;;;;;;;8.07;7.28;;;13.30;99.90;;;;;;5044066;28;20261;-49
2022/04/24 07:20:48;;;;;;;8.18;7.30;;;13.60;99.90;;;;;;5045264;28;20219;-48
2022/04/24 07:23:15;;;;;;;10.00;8.48;;;13.70;99.90;;;;;;5046745;28;20200;-50
2022/04/24 07:25:44;;;;;;;8.25;7.40;;;13.80;99.90;;;;;;5045133;28;20492;-51
2022/04/24 07:28:16;;;;;;;11.15;8.20;;;14.00;99.90;;;;;;5046501;28;20222;-48
2022/04/24 07:30:43;;;;;;;8.18;7.38;;;14.20;99.90;;;;;;5045314;28;20531;-52
2022/04/24 07:33:14;;;;;;;11.48;8.05;;;14.00;99.90;;;;;;5043631;28;20205;-51
2022/04/24 07:35:42;;;;;;;8.48;7.72;;;13.60;99.90;;;;;;5044970;28;20206;-48
2022/04/24 07:38:10;;;;;;;8.48;7.65;;;13.70;99.90;;;;;;5052522;28;20230;-50
2022/04/24 07:40:39;;;;;;;9.98;8.23;;;13.70;99.90;;;;;;5058106;28;20196;-48
2022/04/24 07:43:10;;;;;;;9.93;7.53;;;13.90;99.90;;;;;;5054327;28;20203;-50
2022/04/24 07:45:40;;;;;;;12.63;9.13;;;13.90;99.90;;;;;;5063200;28;20391;-49
2022/04/24 07:48:09;;;;;;;8.63;7.05;;;13.70;99.90;;;;;;5062603;28;20282;-49
2022/04/24 07:50:44;;;;;;;9.65;7.03;;;13.90;99.90;;;;;;5064158;28;20208;-49
2022/04/24 07:53:12;;;;;;;11.60;8.23;;;14.00;99.90;;;;;;5064245;28;20210;-48
2022/04/24 07:55:42;;;;;;;10.50;8.40;;;13.60;99.90;;;;;;5063559;28;20322;-52
2022/04/24 07:58:09;;;;;;;8.27;7.05;;;13.80;99.90;;;;;;5062755;28;20249;-48
2022/04/24 08:00:38;;;;;;;7.15;6.38;;;13.60;99.90;;;;;;5047055;28;20207;-51
2022/04/24 08:03:10;;;;;;;8.30;7.50;;;13.70;99.90;;;;;;5052852;28;20200;-51
2022/04/24 08:05:44;;;;;;;9.20;7.72;;;13.80;99.90;;;;;;5043805;28;20196;-50
2022/04/24 08:08:17;;;;;;;11.13;8.15;;;13.70;99.90;;;;;;5047046;28;20200;-53
2022/04/24 08:10:50;;;;;;;8.05;7.25;;;13.80;99.90;;;;;;5048327;28;20208;-53
2022/04/24 08:13:18;;;;;;;9.23;7.72;;;13.70;99.90;;;;;;5047890;28;20239;-51
2022/04/24 08:15:47;;;;;;;8.00;7.20;;;13.70;99.90;;;;;;5048709;28;20250;-52
2022/04/24 08:18:14;;;;;;;8.55;7.57;;;13.90;99.90;;;;;;5048149;28;20212;-52
2022/04/24 08:20:44;;;;;;;12.07;7.65;;;13.80;99.90;;;;;;5046039;28;20246;-50
2022/04/24 08:23:13;;;;;;;9.70;7.38;;;13.80;99.90;;;;;;5042139;28;20415;-49
2022/04/24 08:25:40;;;;;;;9.48;7.97;;;13.70;99.90;;;;;;5041867;28;20198;-51
2022/04/24 08:28:11;;;;;;;8.85;7.95;;;13.50;99.90;;;;;;5042740;28;20379;-51
2022/04/24 08:30:41;;;;;;;8.75;7.40;;;13.50;99.90;;;;;;5042375;28;20199;-50
2022/04/24 08:33:09;;;;;;;8.23;7.40;;;13.60;99.90;;;;;;5041620;28;20207;-50
2022/04/24 08:35:37;;;;;;;9.10;8.05;;;13.70;99.90;;;;;;5038445;28;20208;-48
2022/04/24 08:38:04;;;;;;;10.75;8.43;;;13.80;99.90;;;;;;5030682;28;20244;-52
2022/04/24 08:40:32;;;;;;;8.82;7.93;;;13.90;99.90;;;;;;5041069;28;20560;-48
2022/04/24 08:43:00;;;;;;;7.35;6.65;;;13.80;99.90;;;;;;5046710;28;20213;-51
2022/04/24 08:45:31;;;;;;;12.13;7.25;;;13.70;99.90;;;;;;5044151;28;20226;-51
2022/04/24 08:48:00;;;;;;;9.52;8.52;;;13.50;99.90;;;;;;5053521;28;20229;-51
2022/04/24 08:50:32;;;;;;;8.48;6.90;;;13.40;99.90;;;;;;5062069;28;20489;-47
2022/04/24 08:53:00;;;;;;;10.65;8.48;;;13.50;99.90;;;;;;5065759;28;20274;-49
2022/04/24 08:55:32;;;;;;;9.15;7.57;;;13.50;99.90;;;;;;5066144;28;20204;-48
2022/04/24 08:58:00;;;;;;;10.02;7.18;;;13.50;99.90;;;;;;5049957;28;20451;-51
2022/04/24 09:00:29;;;;;;;14.23;7.95;;;13.40;99.90;;;;;;5055562;28;20414;-48
2022/04/24 09:02:58;;;;;;;12.55;8.23;;;13.50;99.90;;;;;;5061157;28;20199;-50
2022/04/24 09:05:30;;;;;;;10.70;9.20;;;13.40;99.90;;;;;;5061716;28;20219;-48
2022/04/24 09:08:09;;;;;;;10.38;8.65;;;13.40;99.90;;;;;;5061060;28;20207;-49
2022/04/24 09:10:58;;;;;;;7.68;6.95;;;13.50;99.90;;;;;;5061269;28;20245;-52
2022/04/24 09:13:29;;;;;;;10.40;8.85;;;13.60;99.90;;;;;;5061934;28;20199;-50
2022/04/24 09:15:58;;;;;;;8.70;6.60;;;13.70;99.90;;;;;;5050384;28;20200;-50
2022/04/24 09:18:46;;;;;;;12.00;7.53;;;13.90;99.90;;;;;;5041831;28;20220;-49
2022/04/24 09:21:16;;;;;;;9.25;7.80;;;14.10;99.90;;;;;;5041512;28;20271;-50
2022/04/24 09:23:44;;;;;;;9.60;8.40;;;14.30;99.90;;;;;;5035373;28;20254;-50
2022/04/24 09:26:18;;;;;;;8.40;7.60;;;14.40;99.90;;;;;;5019122;28;20205;-47
2022/04/24 09:29:12;;;;;;;11.50;7.93;;;14.50;99.90;;;;;;5038427;28;20258;-49
2022/04/24 09:31:45;;;;;;;8.05;6.60;;;14.40;99.90;;;;;;5041486;28;20270;-49
2022/04/24 09:34:14;;;;;;;8.55;7.72;;;14.30;99.90;;;;;;5037498;28;20210;-48
2022/04/24 09:36:41;;;;;;;9.57;7.07;;;14.40;99.90;;;;;;5035528;28;20255;-49
2022/04/24 09:39:12;;;;;;;7.75;6.90;;;14.70;99.90;;;;;;5039845;28;20231;-50
2022/04/24 09:41:39;;;;;;;7.97;7.18;;;14.70;99.90;;;;;;5041017;28;20198;-48
2022/04/24 09:44:15;;;;;;;9.13;7.20;;;15.00;99.90;;;;;;5040202;28;20200;-52
2022/04/24 09:46:42;;;;;;;7.60;6.90;;;15.30;99.90;;;;;;5040932;28;20201;-51
2022/04/24 09:49:10;;;;;;;8.00;6.90;;;15.50;99.90;;;;;;5040454;28;20220;-49
2022/04/24 09:51:44;;;;;;;9.30;8.40;;;15.00;99.90;;;;;;5041148;28;20248;-47
2022/04/24 09:54:12;;;;;;;8.57;6.90;;;14.70;99.90;;;;;;5040444;28;20209;-48
2022/04/24 09:56:41;;;;;;;11.95;7.03;;;14.60;99.90;;;;;;5040893;28;20267;-51
2022/04/24 09:59:10;;;;;;;7.70;7.00;;;14.70;99.90;;;;;;5040420;28;20235;-50
2022/04/24 10:01:38;;;;;;;6.55;5.85;;;14.70;99.90;;;;;;5040534;28;20196;-50
2022/04/24 10:04:07;;;;;;;7.22;6.53;;;14.50;99.90;;;;;;5040328;28;20224;-50
2022/04/24 10:06:35;;;;;;;12.20;7.32;;;14.60;99.90;;;;;;5040016;28;20204;-48
2022/04/24 10:09:05;;;;;;;7.30;6.68;;;14.90;99.90;;;;;;5036211;28;20234;-51
2022/04/24 10:11:35;;;;;;;8.07;7.38;;;14.90;99.90;;;;;;5038333;28;20208;-49
2022/04/24 10:14:12;;;;;;;7.50;6.57;;;15.20;99.90;;;;;;5024640;28;20206;-50
2022/04/24 10:16:47;;;;;;;10.35;6.80;;;15.70;99.90;;;;;;5030006;28;20213;-49
2022/04/24 10:19:36;;;;;;;7.65;6.80;;;15.50;99.90;;;;;;5038280;28;20295;-52
2022/04/24 10:22:32;;;;;;;8.67;7.57;;;15.50;99.90;;;;;;5039704;28;20197;-49
2022/04/24 10:25:02;;;;;;;9.57;7.75;;;15.60;99.90;;;;;;5039837;28;20700;-51
2022/04/24 10:27:44;;;;;;;9.20;8.10;;;15.50;99.90;;;;;;5039458;28;20192;-49
2022/04/24 10:30:24;;;;;;;7.93;6.95;;;15.50;99.90;;;;;;5038888;28;20464;-49
2022/04/24 10:33:13;;;;;;;10.27;8.30;;;15.50;99.90;;;;;;5040020;28;20201;-45
2022/04/24 10:36:00;;;;;;;10.73;8.35;;;15.30;99.90;;;;;;5021731;28;20435;-51
2022/04/24 10:38:29;;;;;;;9.57;8.48;;;15.10;99.90;;;;;;5026055;28;20467;-50
2022/04/24 10:40:57;;;;;;;8.20;7.10;;;15.00;99.90;;;;;;5020620;28;20617;-50
2022/04/24 10:43:25;;;;;;;8.82;7.93;;;15.20;99.90;;;;;;5020108;28;20197;-52
2022/04/24 10:45:53;;;;;;;9.88;8.88;;;15.40;99.90;;;;;;5020025;28;20406;-50
2022/04/24 10:48:21;;;;;;;8.00;7.32;;;15.40;99.90;;;;;;5025202;28;20236;-51
2022/04/24 10:50:50;;;;;;;9.30;8.30;;;15.30;99.90;;;;;;5042951;28;20201;-50
2022/04/24 10:53:17;;;;;;;7.57;6.73;;;15.30;99.90;;;;;;5048020;28;20509;-48
2022/04/24 10:55:44;;;;;;;9.20;7.68;;;14.90;99.90;;;;;;5039471;28;20453;-48
2022/04/24 10:58:28;;;;;;;9.43;8.38;;;14.90;99.90;;;;;;5042606;28;20229;-49
2022/04/24 11:01:07;;;;;;;9.90;8.60;;;15.10;99.90;;;;;;5040036;28;20196;-49
2022/04/24 11:03:40;;;;;;;7.78;7.07;;;15.10;99.90;;;;;;5040039;28;20196;-47
2022/04/24 11:06:19;;;;;;;11.50;8.10;;;15.30;99.90;;;;;;5030800;28;20221;-51
2022/04/24 11:08:46;;;;;;;11.13;8.95;;;15.20;99.90;;;;;;5038659;28;20220;-52
2022/04/24 11:11:15;;;;;;;8.57;7.78;;;14.90;99.90;;;;;;5038137;28;20488;-48
2022/04/24 11:13:42;;;;;;;9.50;8.50;;;14.70;99.90;;;;;;5033852;28;20208;-50
2022/04/24 11:16:12;;;;;;;9.30;7.95;;;14.60;99.90;;;;;;5047148;28;20258;-51
2022/04/24 11:18:46;;;;;;;10.27;8.13;;;14.50;99.90;;;;;;5053468;28;20430;-48
2022/04/24 11:21:19;;;;;;;8.52;7.65;;;14.40;99.90;;;;;;5059315;28;20199;-51
2022/04/24 11:23:47;;;;;;;10.23;8.57;;;14.40;99.90;;;;;;5058970;28;20235;-50
2022/04/24 11:26:14;;;;;;;8.48;7.60;;;14.50;99.90;;;;;;5042313;28;20203;-49
2022/04/24 11:28:47;;;;;;;9.25;8.45;;;14.60;99.90;;;;;;5039372;28;20221;-51
2022/04/24 11:31:17;;;;;;;9.05;8.13;;;14.70;99.90;;;;;;5039102;28;20208;-50
2022/04/24 11:34:01;;;;;;;9.23;8.43;;;14.60;99.90;;;;;;5038964;28;20330;-49
2022/04/24 11:36:31;;;;;;;8.75;7.80;;;14.20;99.90;;;;;;5039558;28;20506;-52
2022/04/24 11:39:03;;;;;;;8.30;7.60;;;14.00;99.90;;;;;;5039044;28;20232;-49
2022/04/24 11:41:31;;;;;;;9.45;8.27;;;14.00;99.90;;;;;;5024816;28;20247;-49
2022/04/24 11:50:14;;;;;;;9.18;8.38;;;13.70;99.90;;;;;;5025760;28;20535;-49
2022/04/24 11:53:01;;;;;;;9.50;8.20;;;13.60;99.90;;;;;;5028594;28;20200;-52
2022/04/24 11:56:01;;;;;;;9.38;8.48;;;13.40;99.90;;;;;;5023907;28;20287;-50
2022/04/24 11:58:16;;;;;;;10.13;9.07;;;13.30;99.90;;;;;;5026460;28;20223;-50
2022/04/24 12:00:45;;;;;;;12.07;8.63;;;13.30;99.90;;;;;;5045492;28;20507;-50
2022/04/24 12:03:14;;;;;;;9.82;7.90;;;13.70;99.90;;;;;;5046475;28;20509;-50
2022/04/24 12:05:43;;;;;;;10.02;8.18;;;13.90;99.90;;;;;;5057592;28;20502;-49
2022/04/24 12:08:12;;;;;;;8.65;6.38;;;14.00;99.90;;;;;;5062948;28;20235;-47
2022/04/24 12:10:44;;;;;;;8.02;7.22;;;14.10;99.90;;;;;;5062312;28;20206;-52
2022/04/24 12:13:13;;;;;;;7.00;6.35;;;14.30;99.90;;;;;;5062140;28;20484;-50
2022/04/24 12:15:53;;;;;;;8.38;6.63;;;14.40;99.90;;;;;;5062600;28;20200;-51
2022/04/24 12:18:21;;;;;;;7.30;6.60;;;14.60;99.90;;;;;;5062082;28;20402;-52
2022/04/24 12:20:50;;;;;;;6.43;5.40;;;14.80;99.90;;;;;;5062419;28;20199;-52
2022/04/24 12:23:18;;;;;;;6.22;5.68;;;14.80;99.90;;;;;;5061947;28;20223;-48
2022/04/24 12:25:56;;;;;;;6.53;5.45;;;14.60;99.90;;;;;;5049300;28;20205;-50
2022/04/24 12:28:33;;;;;;;6.45;5.50;;;14.30;99.90;;;;;;5041917;28;20216;-50
2022/04/24 12:31:03;;;;;;;6.30;5.70;;;14.20;99.90;;;;;;5042079;28;20208;-49
2022/04/24 12:33:31;;;;;;;8.48;6.78;;;14.00;99.90;;;;;;5041909;28;20192;-48
2022/04/24 12:36:10;;;;;;;7.10;6.50;;;13.70;99.90;;;;;;5038652;28;20515;-48
2022/04/24 12:38:37;;;;;;;7.03;6.43;;;13.10;99.90;;;;;;5030113;28;20220;-48
2022/04/24 12:41:13;;;;;;;8.93;8.00;;;12.70;99.90;;;;;;5033161;28;20259;-48
2022/04/24 12:43:41;;;;;;;9.93;6.97;;;12.30;99.90;;;;;;5035278;28;20212;-50
2022/04/24 12:46:08;;;;;;;9.85;8.85;;;12.20;99.90;;;;;;5032115;28;20221;-49
2022/04/24 12:48:50;;;;;;;8.43;7.60;;;12.20;99.90;;;;;;5036252;28;20271;-49
2022/04/24 12:51:20;;;;;;;10.13;8.02;;;12.10;99.90;;;;;;5028968;28;20199;-47
2022/04/24 12:53:55;;;;;;;9.30;8.05;;;12.00;99.90;;;;;;5045677;28;20189;-47
2022/04/24 12:56:26;;;;;;;8.15;7.43;;;11.90;99.90;;;;;;5021732;28;20540;-49